createdAt,value
2023-03-12T08:41:56.761Z,100256.91
2023-03-12T08:47:02.129Z,100240.38
2023-03-12T08:52:08.142Z,100234.53
2023-03-12T08:57:16.327Z,100220.94
2023-03-12T09:02:21.396Z,100216.66
2023-03-12T09:07:26.728Z,100213.19
2023-03-12T09:12:34.762Z,100223.34
2023-03-12T09:17:39.973Z,100225.03
2023-03-12T09:22:45.954Z,100231.00
2023-03-12T09:27:53.791Z,100235.19
2023-03-12T09:32:59.437Z,100227.50
2023-03-12T09:38:04.892Z,100236.81
2023-03-12T09:43:16.630Z,100238.47
2023-03-12T09:48:24.741Z,100235.03
2023-03-12T09:53:31.941Z,100229.91
2023-03-12T09:58:40.816Z,100232.44
2023-03-12T10:04:04.027Z,100237.34
2023-03-12T10:09:26.451Z,100233.84
2023-03-12T10:14:46.053Z,100232.94
2023-03-12T10:20:09.311Z,100231.16
2023-03-12T10:25:19.651Z,100232.78
2023-03-12T10:30:29.398Z,100239.53
2023-03-12T10:35:34.637Z,100241.13
2023-03-12T10:40:39.977Z,100235.00
2023-03-12T10:45:50.690Z,100245.94
2023-03-12T10:51:05.916Z,100252.47
2023-03-12T10:56:12.291Z,100253.84
2023-03-12T11:01:24.841Z,100258.50
2023-03-12T11:06:32.274Z,100258.34
2023-03-12T11:11:38.475Z,100245.28
2023-03-12T11:16:46.552Z,100245.00
2023-03-12T11:21:59.023Z,100247.16
2023-03-12T11:27:08.073Z,100239.00
2023-03-12T11:32:20.231Z,100239.31
2023-03-12T11:37:33.986Z,100228.31
2023-03-12T11:42:51.747Z,100232.47
2023-03-12T11:48:19.714Z,100227.03
2023-03-12T11:53:56.522Z,100224.81
2023-03-12T11:59:21.367Z,100229.69
2023-03-12T12:04:56.600Z,100232.28
2023-03-12T12:10:05.239Z,100222.47
2023-03-12T12:15:20.796Z,100224.78
2023-03-12T12:20:36.947Z,100209.72
2023-03-12T12:25:52.879Z,100198.94
2023-03-12T12:31:15.457Z,100192.19
2023-03-12T12:36:23.210Z,100191.38
2023-03-12T12:41:29.113Z,100190.66
2023-03-12T12:46:36.477Z,100187.72
2023-03-12T12:51:46.870Z,100178.22
2023-03-12T12:56:54.260Z,100174.56
2023-03-12T13:01:59.568Z,100169.59
2023-03-12T13:07:34.814Z,100166.34
2023-03-12T13:12:45.479Z,100165.50
2023-03-12T13:18:12.137Z,100166.13
2023-03-12T13:23:39.585Z,100164.59
2023-03-12T13:29:11.830Z,100149.53
2023-03-12T13:34:53.503Z,100151.44
2023-03-12T13:40:10.680Z,100150.09
2023-03-12T13:45:31.858Z,100150.19
2023-03-12T13:50:38.512Z,100148.84
2023-03-12T13:55:46.198Z,100145.47
2023-03-12T14:00:56.612Z,100139.06
2023-03-12T14:06:03.507Z,100125.34
2023-03-12T14:11:24.693Z,100119.75
2023-03-12T14:16:32.404Z,100131.16
2023-03-12T14:21:40.047Z,100131.09
2023-03-12T14:26:49.126Z,100113.81
2023-03-12T14:31:54.318Z,100115.56
2023-03-12T14:37:03.715Z,100130.66
2023-03-12T14:42:12.029Z,100129.75
2023-03-12T14:47:20.681Z,100137.94
2023-03-12T14:52:27.089Z,100136.59
2023-03-12T14:57:34.875Z,100145.66
2023-03-12T15:02:41.285Z,100152.66
2023-03-12T15:07:46.694Z,100151.00
2023-03-12T15:12:54.842Z,100155.44
2023-03-12T15:18:00.016Z,100158.66
2023-03-12T15:23:05.351Z,100165.31
2023-03-12T15:28:29.609Z,100159.75
2023-03-12T15:33:34.861Z,100174.94
2023-03-12T15:38:41.032Z,100159.66
2023-03-12T15:43:49.724Z,100171.00
2023-03-12T15:48:56.239Z,100166.09
2023-03-12T15:54:06.535Z,100185.13
2023-03-12T15:59:27.798Z,100190.38
2023-03-12T16:04:32.996Z,100194.16
2023-03-12T16:09:38.097Z,100187.56
2023-03-12T16:14:51.558Z,100197.78
2023-03-12T16:19:56.746Z,100208.13
2023-03-12T16:25:01.972Z,100208.00
2023-03-12T16:30:15.268Z,100210.56
2023-03-12T16:35:21.601Z,100212.38
2023-03-12T16:40:33.374Z,100208.19
2023-03-12T16:45:41.675Z,100202.19
2023-03-12T16:50:51.919Z,100205.75
2023-03-12T16:55:58.693Z,100204.28
2023-03-12T17:01:06.900Z,100190.78
2023-03-12T17:06:17.809Z,100191.84
2023-03-12T17:11:24.752Z,100184.38
2023-03-12T17:16:32.841Z,100199.34
2023-03-12T17:21:38.119Z,100210.88
2023-03-12T17:26:43.397Z,100211.31
2023-03-12T17:31:51.297Z,100202.22
2023-03-12T17:36:56.449Z,100197.38
2023-03-12T17:42:03.944Z,100197.59
2023-03-12T17:47:11.739Z,100205.47
2023-03-12T17:52:17.231Z,100217.69
2023-03-12T17:57:23.198Z,100228.09
2023-03-12T18:02:31.074Z,100239.25
2023-03-12T18:07:36.296Z,100247.84
2023-03-12T18:12:41.458Z,100241.88
2023-03-12T18:17:52.416Z,100242.72
2023-03-12T18:22:57.558Z,100242.81
2023-03-12T18:28:02.875Z,100253.00
2023-03-12T18:33:10.636Z,100246.91
2023-03-12T18:38:15.928Z,100258.94
2023-03-12T18:43:22.027Z,100256.25
2023-03-12T18:48:29.901Z,100254.47
2023-03-12T18:53:35.300Z,100245.88
2023-03-12T18:58:40.578Z,100246.69
2023-03-12T19:03:48.425Z,100247.47
2023-03-12T19:08:54.120Z,100244.06
2023-03-12T19:14:02.131Z,100239.72
2023-03-12T19:19:12.900Z,100232.84
2023-03-12T19:24:18.321Z,100233.81
2023-03-12T19:29:23.561Z,100225.34
2023-03-12T19:34:31.337Z,100221.22
2023-03-12T19:39:36.520Z,100212.03
2023-03-12T19:44:42.350Z,100209.69
2023-03-12T19:49:50.138Z,100215.06
2023-03-12T19:55:04.238Z,100200.63
2023-03-12T20:00:12.854Z,100195.59
2023-03-12T20:05:21.078Z,100193.97
2023-03-12T20:10:27.843Z,100190.66
2023-03-12T20:15:33.290Z,100187.25
2023-03-12T20:20:41.050Z,100177.91
2023-03-12T20:25:46.426Z,100178.00
2023-03-12T20:30:51.705Z,100170.28
2023-03-12T20:35:59.575Z,100162.59
2023-03-12T20:41:05.064Z,100166.09
2023-03-12T20:46:10.262Z,100152.47
2023-03-12T20:51:18.128Z,100136.28
2023-03-12T20:56:23.337Z,100139.91
2023-03-12T21:01:28.693Z,100126.28
2023-03-12T21:06:36.505Z,100113.53
2023-03-12T21:11:41.777Z,100104.25
2023-03-12T21:16:47.064Z,100099.25
2023-03-12T21:21:54.865Z,100094.16
2023-03-12T21:27:00.596Z,100083.97
2023-03-12T21:32:05.799Z,100092.56
2023-03-12T21:37:14.023Z,100086.63
2023-03-12T21:42:19.121Z,100078.16
2023-03-12T21:47:24.186Z,100069.59
2023-03-12T21:52:33.644Z,100071.22
2023-03-12T21:57:38.837Z,100049.00
2023-03-12T22:02:44.107Z,100055.06
2023-03-12T22:07:51.856Z,100059.38
2023-03-12T22:12:57.177Z,100067.13
2023-03-12T22:18:02.295Z,100046.63
2023-03-12T22:23:09.989Z,100051.72
2023-03-12T22:28:15.151Z,100037.25
2023-03-12T22:33:20.214Z,100028.75
2023-03-12T22:38:27.911Z,100020.09
2023-03-12T22:43:32.966Z,100012.38
2023-03-12T22:48:38.194Z,99997.66
2023-03-12T22:53:46.096Z,99990.53
